TimeCST,TemperatureF,Dew PointF,Humidity,Sea Level PressureIn,VisibilityMPH,Wind Direction,Wind SpeedMPH,Gust SpeedMPH,PrecipitationIn,Events,Conditions,WindDirDegrees,DateUTC
12:15 AM,-7.6,-13.9,74,30.36,10.0,Calm,Calm,-,N/A,,Clear,0,2014-01-01 06:15:00
12:35 AM,-7.1,-13.7,73,30.35,10.0,NNE,4.6,-,N/A,,Clear,30,2014-01-01 06:35:00
12:55 AM,-6.9,-13.9,72,30.35,10.0,NE,4.6,-,N/A,,Clear,40,2014-01-01 06:55:00
1:15 AM,-7.1,-13.9,72,30.34,10.0,NNE,5.8,-,N/A,,Clear,30,2014-01-01 07:15:00
1:35 AM,-6.7,-13.5,72,30.35,10.0,Calm,Calm,-,N/A,,Clear,0,2014-01-01 07:35:00
1:55 AM,-6.2,-13.2,72,30.35,10.0,Calm,Calm,-,N/A,,Clear,0,2014-01-01 07:55:00
2:15 AM,-5.8,-13.0,71,30.36,10.0,Calm,Calm,-,N/A,,Clear,0,2014-01-01 08:15:00
2:35 AM,-5.8,-13.0,71,30.37,10.0,Calm,Calm,-,N/A,,Clear,0,2014-01-01 08:35:00
2:55 AM,-5.1,-12.3,71,30.38,10.0,Calm,Calm,-,N/A,,Clear,0,2014-01-01 08:55:00
3:15 AM,-4.9,-12.1,71,30.37,10.0,Calm,Calm,-,N/A,,Clear,0,2014-01-01 09:15:00
3:35 AM,-4.2,-11.7,70,30.37,10.0,Calm,Calm,-,N/A,,Clear,0,2014-01-01 09:35:00
3:55 AM,-3.6,-11.0,71,30.37,10.0,Calm,Calm,-,N/A,,Clear,0,2014-01-01 09:55:00
4:15 AM,-3.3,-11.0,69,30.36,10.0,Calm,Calm,-,N/A,,Clear,0,2014-01-01 10:15:00
4:35 AM,-2.7,-11.4,67,30.36,10.0,Calm,Calm,-,N/A,,Clear,0,2014-01-01 10:35:00
4:55 AM,-2.7,-11.9,65,30.35,10.0,East,3.5,-,N/A,,Clear,90,2014-01-01 10:55:00
5:15 AM,-2.7,-11.6,66,30.35,10.0,ENE,5.8,-,N/A,,Clear,70,2014-01-01 11:15:00
5:35 AM,-2.6,-11.4,66,30.36,10.0,ENE,3.5,-,N/A,,Clear,70,2014-01-01 11:35:00
5:55 AM,-2.6,-11.2,67,30.36,10.0,ENE,4.6,-,N/A,,Clear,60,2014-01-01 11:55:00
6:15 AM,-2.6,-11.2,67,30.38,10.0,NE,4.6,-,N/A,,Clear,40,2014-01-01 12:15:00
6:35 AM,-2.6,-11.2,67,30.39,10.0,NE,4.6,-,N/A,,Clear,50,2014-01-01 12:35:00
6:55 AM,-2.4,-10.7,68,30.39,10.0,NNE,4.6,-,N/A,,Clear,30,2014-01-01 12:55:00
7:15 AM,-2.2,-10.3,68,30.39,10.0,NE,3.5,-,N/A,,Clear,50,2014-01-01 13:15:00
7:35 AM,-2.2,-10.3,68,30.40,10.0,NE,4.6,-,N/A,,Clear,40,2014-01-01 13:35:00
7:55 AM,-2.2,-10.3,68,30.40,10.0,NE,4.6,-,N/A,,Clear,50,2014-01-01 13:55:00
8:15 AM,-1.5,-9.6,69,30.40,10.0,NE,6.9,-,N/A,,Clear,50,2014-01-01 14:15:00
8:35 AM,-1.3,-9.6,68,30.40,10.0,NE,4.6,-,N/A,,Clear,50,2014-01-01 14:35:00
8:55 AM,-0.6,-9.0,67,30.41,10.0,NE,5.8,-,N/A,,Clear,50,2014-01-01 14:55:00
9:15 AM,0.3,-8.5,66,30.41,10.0,ENE,5.8,-,N/A,,Clear,70,2014-01-01 15:15:00
9:35 AM,0.7,-8.5,65,30.42,10.0,East,6.9,-,N/A,,Clear,80,2014-01-01 15:35:00
9:55 AM,1.8,-8.0,64,30.42,10.0,NE,4.6,-,N/A,,Clear,50,2014-01-01 15:55:00
10:15 AM,2.7,-7.8,62,30.42,10.0,ENE,4.6,-,N/A,,Clear,60,2014-01-01 16:15:00
10:35 AM,3.7,-7.2,60,30.42,10.0,NE,4.6,-,N/A,,Clear,40,2014-01-01 16:35:00
10:55 AM,3.9,-7.6,59,30.42,10.0,NNE,6.9,-,N/A,,Clear,30,2014-01-01 16:55:00
11:15 AM,4.8,-7.2,58,30.41,10.0,NE,8.1,-,N/A,,Clear,50,2014-01-01 17:15:00
11:35 AM,5.5,-6.7,57,30.40,10.0,NE,8.1,-,N/A,,Clear,40,2014-01-01 17:35:00
11:55 AM,5.7,-6.9,56,30.39,10.0,ENE,6.9,-,N/A,,Clear,70,2014-01-01 17:55:00
12:15 PM,5.7,-7.1,56,30.38,10.0,NE,9.2,-,N/A,,Clear,50,2014-01-01 18:15:00
12:35 PM,6.1,-7.4,54,30.37,10.0,ENE,5.8,-,N/A,,Clear,60,2014-01-01 18:35:00
12:55 PM,6.6,-7.2,53,30.37,10.0,NNE,6.9,-,N/A,,Clear,20,2014-01-01 18:55:00
1:15 PM,7.3,-7.2,51,30.36,10.0,NE,8.1,-,N/A,,Clear,50,2014-01-01 19:15:00
1:35 PM,8.2,-6.9,50,30.35,10.0,NE,6.9,-,N/A,,Clear,50,2014-01-01 19:35:00
1:55 PM,8.4,-7.4,49,30.34,10.0,NNE,6.9,-,N/A,,Clear,20,2014-01-01 19:55:00
2:15 PM,8.6,-7.4,48,30.34,10.0,NNE,6.9,-,N/A,,Clear,30,2014-01-01 20:15:00
2:35 PM,8.6,-8.1,47,30.34,10.0,NNE,8.1,-,N/A,,Clear,20,2014-01-01 20:35:00
2:55 PM,9.0,-8.1,46,30.34,10.0,NE,5.8,-,N/A,,Clear,50,2014-01-01 20:55:00
3:15 PM,8.8,-8.3,46,30.34,10.0,ENE,3.5,-,N/A,,Clear,60,2014-01-01 21:15:00
3:35 PM,7.9,-8.0,49,30.35,10.0,North,5.8,-,N/A,,Clear,10,2014-01-01 21:35:00
3:55 PM,7.2,-8.7,48,30.35,10.0,NNE,5.8,-,N/A,,Clear,20,2014-01-01 21:55:00
4:15 PM,6.8,-7.8,51,30.36,10.0,NE,5.8,-,N/A,,Scattered Clouds,40,2014-01-01 22:15:00
4:35 PM,6.8,-7.8,51,30.36,10.0,NE,4.6,-,N/A,,Mostly Cloudy,50,2014-01-01 22:35:00
4:55 PM,6.8,-7.2,53,30.36,10.0,ENE,4.6,-,N/A,,Overcast,70,2014-01-01 22:55:00
5:15 PM,6.3,-7.6,53,30.36,10.0,ENE,3.5,-,N/A,,Mostly Cloudy,60,2014-01-01 23:15:00
5:35 PM,5.9,-7.6,54,30.37,10.0,NE,3.5,-,N/A,,Mostly Cloudy,50,2014-01-01 23:35:00
5:55 PM,5.7,-6.7,57,30.38,10.0,Calm,Calm,-,N/A,,Mostly Cloudy,0,2014-01-01 23:55:00
6:15 PM,5.9,-6.3,57,30.38,10.0,NNE,3.5,-,N/A,,Overcast,20,2014-01-02 00:15:00
6:35 PM,5.9,-5.6,59,30.38,10.0,NNE,4.6,-,N/A,,Overcast,30,2014-01-02 00:35:00
6:55 PM,5.9,-5.1,61,30.38,10.0,North,5.8,-,N/A,,Mostly Cloudy,10,2014-01-02 00:55:00
7:15 PM,5.7,-4.7,62,30.38,10.0,NNE,3.5,-,N/A,,Overcast,20,2014-01-02 01:15:00
7:35 PM,5.5,-4.9,62,30.38,10.0,North,3.5,-,N/A,,Overcast,10,2014-01-02 01:35:00
7:55 PM,5.5,-4.9,62,30.37,10.0,North,4.6,-,N/A,,Mostly Cloudy,10,2014-01-02 01:55:00
8:15 PM,5.5,-4.9,62,30.38,10.0,North,4.6,-,N/A,,Overcast,360,2014-01-02 02:15:00
8:35 PM,5.5,-4.9,62,30.37,10.0,NNE,4.6,-,N/A,,Overcast,20,2014-01-02 02:35:00
8:55 PM,5.5,-4.9,62,30.37,10.0,North,4.6,-,N/A,,Overcast,10,2014-01-02 02:55:00
9:15 PM,5.5,-4.9,62,30.37,10.0,North,3.5,-,N/A,,Overcast,10,2014-01-02 03:15:00
9:35 PM,5.5,-4.7,63,30.37,10.0,North,3.5,-,N/A,,Overcast,360,2014-01-02 03:35:00
9:55 PM,5.5,-4.7,63,30.38,10.0,North,3.5,-,N/A,,Overcast,350,2014-01-02 03:55:00
10:15 PM,5.5,-4.5,63,30.37,10.0,North,4.6,-,N/A,,Overcast,350,2014-01-02 04:15:00
10:35 PM,5.4,-4.4,64,30.37,10.0,North,3.5,-,N/A,,Overcast,350,2014-01-02 04:35:00
10:55 PM,5.4,-4.5,64,30.36,10.0,NNE,3.5,-,N/A,,Overcast,20,2014-01-02 04:55:00
11:15 PM,5.4,-4.7,63,30.36,10.0,North,3.5,-,N/A,,Overcast,10,2014-01-02 05:15:00
11:35 PM,5.2,-4.2,65,30.35,10.0,NNE,3.5,-,N/A,,Overcast,20,2014-01-02 05:35:00
11:55 PM,5.0,-4.0,66,30.35,10.0,North,3.5,-,N/A,,Overcast,10,2014-01-02 05:55:00